Time;durP1;ratioP1;P1;durP2;ratioP2;P2;SDS_P1;SDS_P2;PMS_P1;PMS_P2;Temp;Humidity;BMP_temperature;BMP_pressure;BME280_temperature;BME280_humidity;BME280_pressure;Samples;Min_cycle;Max_cycle;Signal;HPM_P1;HPM_P2
2021/07/28 00:01:53;;;;;;;12.20;8.70;;;;;;;25.23;63.00;101416.03;5114886;28;20335;-61
2021/07/28 00:04:18;;;;;;;16.17;9.97;;;;;;;25.20;62.80;101412.19;5114507;28;20565;-60
2021/07/28 00:06:44;;;;;;;25.77;10.30;;;;;;;25.19;62.76;101412.69;5114095;28;20170;-60
2021/07/28 00:09:10;;;;;;;13.40;9.10;;;;;;;25.01;63.03;101411.13;5114694;28;20244;-60
2021/07/28 00:11:35;;;;;;;14.20;9.57;;;;;;;24.95;63.37;101413.19;5114495;28;20182;-60
2021/07/28 00:14:01;;;;;;;17.40;10.00;;;;;;;24.95;63.53;101413.19;5115087;28;20173;-61
2021/07/28 00:16:26;;;;;;;14.23;9.40;;;;;;;24.93;63.32;101420.66;5113832;28;20227;-61
2021/07/28 00:24:08;;;;;;;12.13;9.17;;;;;;;24.73;63.37;101406.69;5114316;28;20658;-60
2021/07/28 00:26:33;;;;;;;13.73;8.83;;;;;;;24.72;63.74;101405.91;5113587;28;20170;-61
2021/07/28 00:28:59;;;;;;;13.00;8.97;;;;;;;24.74;63.95;101408.22;5114462;28;20170;-60
2021/07/28 00:31:24;;;;;;;13.33;9.40;;;;;;;24.73;63.66;101409.50;5114045;28;20250;-60
2021/07/28 00:33:50;;;;;;;13.20;9.80;;;;;;;24.70;63.75;101407.69;5114227;28;20189;-60
2021/07/28 00:36:15;;;;;;;13.70;9.47;;;;;;;24.69;63.57;101411.81;5113466;28;20166;-61
2021/07/28 00:38:41;;;;;;;15.20;10.03;;;;;;;24.64;64.04;101412.56;5114479;28;20257;-60
2021/07/28 00:41:06;;;;;;;13.40;10.17;;;;;;;24.58;63.98;101404.06;5114110;28;20202;-60
2021/07/28 00:43:32;;;;;;;17.13;9.83;;;;;;;24.65;64.10;101419.78;5113869;28;20731;-60
2021/07/28 00:45:58;;;;;;;13.73;10.30;;;;;;;23.92;64.04;101304.66;5112586;28;20166;-61
2021/07/28 00:48:23;;;;;;;13.53;9.27;;;;;;;24.52;64.00;101399.63;5113977;28;20178;-60
2021/07/28 00:50:49;;;;;;;11.57;8.90;;;;;;;24.53;63.93;101416.13;5113821;28;20182;-61
2021/07/28 00:53:20;;;;;;;13.63;9.83;;;;;;;24.40;64.28;101407.31;5113679;28;20260;-60
2021/07/28 00:55:51;;;;;;;17.20;9.90;;;;;;;24.30;63.93;101408.81;5113682;28;20166;-61
2021/07/28 00:58:18;;;;;;;14.80;10.47;;;;;;;24.19;64.35;101407.97;5113351;28;20178;-61
2021/07/28 01:00:44;;;;;;;14.43;10.90;;;;;;;23.60;64.69;101330.72;5113692;28;20179;-60
2021/07/28 01:03:10;;;;;;;16.60;10.53;;;;;;;24.13;64.96;101415.69;5113777;28;20178;-60
2021/07/28 01:05:36;;;;;;;15.93;11.07;;;;;;;24.06;65.55;101419.00;5113442;28;20189;-61
2021/07/28 01:08:03;;;;;;;18.77;11.50;;;;;;;23.96;65.71;101404.25;5112738;28;20560;-60
2021/07/28 01:10:28;;;;;;;16.87;10.93;;;;;;;24.06;65.24;101405.59;5113332;28;20181;-61
2021/07/28 01:12:55;;;;;;;14.37;10.00;;;;;;;23.85;65.06;101377.94;5113497;28;20174;-61
2021/07/28 01:18:02;;;;;;;16.83;11.07;;;;;;;23.89;66.36;101399.09;5113100;28;20162;-61
2021/07/28 01:20:34;;;;;;;12.43;10.80;;;;;;;23.85;66.56;101389.25;5113321;28;20170;-60
2021/07/28 01:23:03;;;;;;;17.83;11.53;;;;;;;23.87;66.31;101395.19;5113171;28;20191;-60
2021/07/28 01:25:34;;;;;;;19.33;10.63;;;;;;;23.91;65.97;101385.19;5113285;28;20653;-60
2021/07/28 01:28:00;;;;;;;15.60;10.23;;;;;;;23.90;65.90;101394.97;5112559;28;20214;-60
2021/07/28 01:30:26;;;;;;;12.67;9.97;;;;;;;23.88;66.15;101391.84;5112837;28;20201;-61
2021/07/28 01:32:52;;;;;;;15.57;10.83;;;;;;;23.71;65.99;101367.56;5113139;28;20170;-61
2021/07/28 01:35:21;;;;;;;15.83;10.17;;;;;;;23.84;65.91;101393.38;5112974;28;20253;-61
2021/07/28 01:37:46;;;;;;;13.23;10.50;;;;;;;23.90;65.39;101388.56;5112137;28;20265;-60
2021/07/28 01:40:13;;;;;;;12.07;10.20;;;;;;;23.51;65.23;101336.56;5113134;28;20201;-60
2021/07/28 01:42:46;;;;;;;16.57;10.77;;;;;;;23.82;65.51;101384.59;5112610;28;20737;-61
2021/07/28 01:45:13;;;;;;;19.50;11.30;;;;;;;23.85;65.64;101394.91;5112995;28;20257;-60
2021/07/28 01:47:40;;;;;;;18.80;11.47;;;;;;;23.82;65.81;101396.72;5112059;28;20177;-60
2021/07/28 01:50:07;;;;;;;21.60;12.00;;;;;;;23.66;66.16;101383.22;5112751;28;20187;-60
2021/07/28 01:52:37;;;;;;;21.93;12.33;;;;;;;22.84;66.85;101273.06;5112618;28;20218;-60
2021/07/28 01:55:04;;;;;;;16.57;12.10;;;;;;;23.54;66.95;101375.16;5112807;28;20178;-61
2021/07/28 01:57:29;;;;;;;21.23;12.33;;;;;;;23.69;66.76;101389.94;5110592;28;20530;-60
2021/07/28 02:00:00;;;;;;;27.30;12.83;;;;;;;23.74;66.59;101400.53;5112643;28;20257;-60
2021/07/28 02:02:31;;;;;;;23.37;12.80;;;;;;;23.78;66.17;101404.66;5112428;28;20285;-60
2021/07/28 02:05:02;;;;;;;21.10;11.60;;;;;;;23.80;66.19;101402.06;5112536;28;20219;-60
2021/07/28 02:07:28;;;;;;;19.20;11.57;;;;;;;23.59;66.34;101365.94;5111578;28;20178;-60
2021/07/28 02:09:54;;;;;;;24.13;11.77;;;;;;;23.74;66.37;101400.53;5112313;28;20271;-61
2021/07/28 02:12:20;;;;;;;25.13;13.43;;;;;;;23.76;66.13;101401.56;5112185;28;20173;-60
2021/07/28 02:14:46;;;;;;;26.77;13.33;;;;;;;23.67;66.33;101386.81;5112275;28;20750;-60
2021/07/28 02:17:11;;;;;;;16.07;11.57;;;;;;;23.63;66.16;101397.59;5111431;28;20215;-60
2021/07/28 02:19:37;;;;;;;17.70;11.70;;;;;;;23.15;66.23;101342.94;5112387;28;20177;-61
2021/07/28 02:22:02;;;;;;;21.17;11.90;;;;;;;23.62;66.17;101396.84;5112154;28;20194;-60
2021/07/28 02:24:28;;;;;;;19.33;11.90;;;;;;;23.57;66.51;101391.13;5111698;28;20181;-60
2021/07/28 02:26:53;;;;;;;26.07;12.17;;;;;;;23.53;66.71;101390.56;5111315;28;20171;-60
2021/07/28 02:29:19;;;;;;;17.97;11.63;;;;;;;23.56;66.59;101398.84;5111996;28;20653;-61
2021/07/28 02:31:44;;;;;;;20.70;11.57;;;;;;;23.61;66.37;101398.13;5111780;28;20648;-60
2021/07/28 02:34:10;;;;;;;17.07;11.03;;;;;;;23.60;66.14;101390.88;5112025;28;20174;-60
2021/07/28 02:36:35;;;;;;;16.70;10.93;;;;;;;23.44;66.92;101393.63;5111377;28;20219;-60
2021/07/28 02:39:00;;;;;;;15.83;11.70;;;;;;;23.50;66.81;101395.19;5111688;28;20178;-61
2021/07/28 02:41:26;;;;;;;14.87;10.90;;;;;;;23.56;66.80;101401.69;5111613;28;20251;-60
2021/07/28 02:43:51;;;;;;;15.93;11.30;;;;;;;23.61;66.80;101405.81;5111688;28;20186;-61
2021/07/28 02:46:17;;;;;;;13.83;10.80;;;;;;;23.61;66.67;101406.59;5110993;28;20178;-61
2021/07/28 02:48:42;;;;;;;15.70;10.40;;;;;;;23.62;66.56;101404.53;5112126;28;20174;-60
2021/07/28 02:51:08;;;;;;;14.93;10.43;;;;;;;23.56;66.67;101386.75;5111619;28;20640;-60
2021/07/28 02:53:33;;;;;;;16.67;10.40;;;;;;;23.45;66.44;101370.47;5111521;28;20202;-60
2021/07/28 02:55:59;;;;;;;16.40;10.87;;;;;;;23.70;66.17;101406.38;5110904;28;20237;-60
2021/07/28 02:58:24;;;;;;;16.50;10.07;;;;;;;23.74;65.69;101415.44;5111218;28;20178;-60
2021/07/28 03:00:53;;;;;;;19.77;10.63;;;;;;;23.75;65.49;101421.88;5111315;28;20174;-60
2021/07/28 03:03:18;;;;;;;17.27;10.03;;;;;;;23.75;65.37;101413.38;5111372;28;20178;-60
2021/07/28 03:05:44;;;;;;;13.70;10.40;;;;;;;23.58;65.59;101418.13;5111387;28;20257;-60
2021/07/28 03:08:09;;;;;;;16.80;9.80;;;;;;;23.49;66.11;101421.16;5110734;28;20170;-60
2021/07/28 03:10:34;;;;;;;16.67;10.93;;;;;;;23.31;66.15;101413.81;5111107;28;20182;-60
2021/07/28 03:13:00;;;;;;;16.77;10.73;;;;;;;23.36;66.16;101418.75;5111253;28;20607;-60
2021/07/28 03:15:25;;;;;;;17.37;10.83;;;;;;;23.28;67.28;101422.53;5111189;28;20193;-60
2021/07/28 03:17:51;;;;;;;17.03;10.33;;;;;;;23.28;66.86;101420.47;5110419;28;20174;-60
2021/07/28 03:20:16;;;;;;;19.60;10.90;;;;;;;22.66;66.98;101327.09;5111230;28;20170;-60
2021/07/28 03:22:42;;;;;;;18.93;10.67;;;;;;;23.30;67.09;101415.09;5110858;28;20193;-60
2021/07/28 03:25:08;;;;;;;18.00;10.73;;;;;;;23.34;67.14;101418.47;5111136;28;20183;-60
2021/07/28 03:27:33;;;;;;;14.53;10.93;;;;;;;23.38;67.14;101416.19;5110251;28;20234;-60
2021/07/28 03:29:59;;;;;;;24.13;11.27;;;;;;;23.34;67.39;101409.97;5111018;28;20174;-61
2021/07/28 03:32:24;;;;;;;19.67;11.40;;;;;;;23.37;67.40;101416.69;5110833;28;20174;-60
2021/07/28 03:34:50;;;;;;;21.47;10.70;;;;;;;23.30;67.64;101419.97;5111120;28;20182;-60
2021/07/28 03:37:15;;;;;;;21.47;11.57;;;;;;;23.29;67.77;101424.09;5110357;28;20602;-60
2021/07/28 03:39:41;;;;;;;23.03;11.23;;;;;;;22.55;67.29;101292.31;5110780;28;20184;-60
2021/07/28 03:42:07;;;;;;;26.33;11.23;;;;;;;23.41;67.12;101415.19;5110760;28;20710;-60
2021/07/28 03:44:33;;;;;;;25.27;11.00;;;;;;;23.50;66.98;101425.53;5110874;28;20158;-60
2021/07/28 03:46:59;;;;;;;20.07;10.87;;;;;;;23.05;66.71;101353.69;5110224;28;20671;-61
2021/07/28 03:49:24;;;;;;;25.57;11.57;;;;;;;23.24;66.51;101368.25;5110884;28;20194;-60
2021/07/28 03:51:50;;;;;;;22.20;11.07;;;;;;;23.62;66.45;101418.69;5110876;28;20209;-60
2021/07/28 03:54:15;;;;;;;20.80;11.10;;;;;;;23.61;66.28;101422.78;5110859;28;20196;-61
2021/07/28 03:56:41;;;;;;;17.23;10.77;;;;;;;23.56;66.94;101420.69;5110044;28;20329;-60
2021/07/28 03:59:06;;;;;;;19.87;10.43;;;;;;;23.68;66.71;101422.31;5110812;28;20677;-61
2021/07/28 04:01:32;;;;;;;18.77;10.73;;;;;;;23.68;66.48;101411.78;5105298;28;20198;-60
2021/07/28 04:03:57;;;;;;;19.47;10.43;;;;;;;23.83;66.12;101417.28;5084117;28;20186;-60
2021/07/28 04:06:23;;;;;;;18.57;10.47;;;;;;;23.92;66.04;101420.72;5089593;28;20171;-60
2021/07/28 04:08:48;;;;;;;18.50;9.83;;;;;;;24.01;65.51;101428.25;5090107;28;20179;-60
2021/07/28 04:11:14;;;;;;;21.27;10.93;;;;;;;23.98;65.48;101415.88;5090296;28;20163;-61
2021/07/28 04:13:39;;;;;;;16.73;10.10;;;;;;;24.10;64.81;101434.47;5090275;28;20265;-60
2021/07/28 04:16:05;;;;;;;21.33;11.03;;;;;;;23.99;65.20;101439.28;5089606;28;20194;-60
2021/07/28 04:18:31;;;;;;;17.73;11.10;;;;;;;23.99;65.07;101439.28;5090229;28;20205;-60
2021/07/28 04:20:57;;;;;;;19.07;11.27;;;;;;;24.05;65.31;101438.03;5092207;28;20167;-60
2021/07/28 04:23:22;;;;;;;17.10;10.20;;;;;;;24.12;64.85;101431.91;5092446;28;20304;-60
2021/07/28 04:25:47;;;;;;;16.10;10.40;;;;;;;24.09;64.64;101417.97;5073700;28;20671;-61
2021/07/28 04:28:13;;;;;;;18.63;10.23;;;;;;;24.33;64.38;101441.81;5086950;28;20179;-60
2021/07/28 04:30:38;;;;;;;18.33;10.23;;;;;;;24.29;64.38;101420.66;5076913;28;20645;-60
2021/07/28 04:33:04;;;;;;;18.50;10.43;;;;;;;24.47;63.99;101431.56;5093598;28;20185;-60
2021/07/28 04:35:29;;;;;;;14.40;10.80;;;;;;;24.48;63.77;101416.88;5076139;28;20229;-60
2021/07/28 04:37:55;;;;;;;17.43;11.53;;;;;;;24.38;63.55;101401.41;5072137;28;20182;-60
2021/07/28 04:40:20;;;;;;;17.43;11.57;;;;;;;24.47;63.42;101398.31;5080893;28;20188;-60
2021/07/28 04:42:46;;;;;;;18.60;12.13;;;;;;;24.69;63.31;101431.66;5091626;27;20256;-60
2021/07/28 04:45:11;;;;;;;18.93;11.50;;;;;;;24.73;63.17;101429.34;5107446;27;20190;-60
2021/07/28 04:47:37;;;;;;;18.60;11.73;;;;;;;24.76;63.24;101420.59;5111022;28;20270;-60
2021/07/28 04:50:03;;;;;;;20.63;11.73;;;;;;;24.80;63.24;101418.31;5112818;28;20178;-60
2021/07/28 04:52:28;;;;;;;19.17;11.93;;;;;;;24.85;63.22;101417.53;5112013;28;20643;-60
2021/07/28 04:54:54;;;;;;;18.00;12.57;;;;;;;24.91;63.03;101426.81;5110926;28;20177;-60
2021/07/28 04:57:20;;;;;;;16.30;12.50;;;;;;;24.95;63.03;101429.41;5110764;28;20679;-60
2021/07/28 04:59:46;;;;;;;19.93;12.87;;;;;;;25.05;62.95;101427.88;5111822;28;20709;-60
2021/07/28 05:02:11;;;;;;;17.67;13.13;;;;;;;25.15;62.89;101429.19;5112546;28;20229;-61
2021/07/28 05:04:37;;;;;;;19.97;13.60;;;;;;;25.19;62.88;101419.13;5111802;28;20198;-60
2021/07/28 05:07:03;;;;;;;19.60;14.07;;;;;;;24.84;62.56;101370.63;5090341;28;20758;-60
2021/07/28 05:09:28;;;;;;;20.70;13.93;;;;;;;25.30;62.29;101416.34;5101186;28;20573;-60
2021/07/28 05:11:54;;;;;;;24.27;14.87;;;;;;;25.36;62.17;101424.84;5112193;28;20162;-60
2021/07/28 05:14:19;;;;;;;19.90;14.27;;;;;;;25.17;62.21;101382.00;5111825;28;20175;-60
2021/07/28 05:16:45;;;;;;;26.33;13.50;;;;;;;25.55;62.26;101420.97;5109995;28;20467;-60
2021/07/28 05:19:10;;;;;;;22.70;13.47;;;;;;;25.63;62.47;101416.31;5112134;28;20197;-60
2021/07/28 05:21:36;;;;;;;21.20;12.87;;;;;;;25.11;62.46;101312.38;5111996;28;20577;-60
2021/07/28 05:24:02;;;;;;;21.27;13.37;;;;;;;25.85;62.32;101418.34;5093086;28;20175;-60
2021/07/28 05:26:27;;;;;;;24.17;13.47;;;;;;;25.93;62.73;101423.00;5101969;28;20209;-60
2021/07/28 05:28:53;;;;;;;19.57;12.67;;;;;;;25.40;62.53;101332.50;5111606;28;20181;-60
2021/07/28 05:31:18;;;;;;;24.53;13.23;;;;;;;26.01;62.33;101403.38;5111568;28;20171;-60
2021/07/28 05:33:44;;;;;;;18.23;13.17;;;;;;;26.09;62.22;101399.47;5111770;28;20671;-60
2021/07/28 05:36:09;;;;;;;21.50;11.87;;;;;;;26.31;62.09;101424.94;5102187;28;20182;-60
2021/07/28 05:38:35;;;;;;;21.07;12.90;;;;;;;26.33;61.62;101411.00;5111299;28;20186;-60
2021/07/28 05:41:05;;;;;;;20.40;12.87;;;;;;;26.55;61.58;101430.00;5111579;28;20189;-60
2021/07/28 05:43:30;;;;;;;22.30;13.47;;;;;;;26.59;61.24;101416.34;5093964;28;20231;-60
2021/07/28 05:45:56;;;;;;;21.13;13.63;;;;;;;26.73;60.97;101435.13;5089504;28;20190;-60
2021/07/28 05:48:21;;;;;;;21.70;12.30;;;;;;;26.83;61.28;101454.22;5090965;28;20179;-60
2021/07/28 05:50:50;;;;;;;22.03;13.33;;;;;;;26.71;60.44;101415.75;5091095;28;20198;-60
2021/07/28 05:53:15;;;;;;;20.13;12.27;;;;;;;26.97;59.39;101444.56;5091169;28;20223;-60
2021/07/28 05:55:41;;;;;;;17.80;12.53;;;;;;;26.90;59.90;101435.81;5081839;28;20188;-60
2021/07/28 05:58:06;;;;;;;20.03;13.17;;;;;;;26.57;60.42;101379.91;5089918;28;20178;-60
2021/07/28 06:00:32;;;;;;;21.70;12.57;;;;;;;27.10;59.71;101441.09;5091145;28;20428;-60
2021/07/28 06:02:57;;;;;;;21.57;12.67;;;;;;;27.22;59.10;101439.78;5090932;28;20213;-61
2021/07/28 06:05:23;;;;;;;20.67;11.83;;;;;;;26.76;58.73;101352.38;5084372;28;20600;-60
2021/07/28 06:07:48;;;;;;;19.93;12.40;;;;;;;27.34;59.16;101438.38;5087609;28;20175;-60
2021/07/28 06:10:14;;;;;;;18.77;12.40;;;;;;;27.40;58.97;101439.09;5087608;28;20190;-60
2021/07/28 06:12:40;;;;;;;19.10;12.33;;;;;;;26.75;59.01;101342.31;5090399;28;20167;-60
2021/07/28 06:15:06;;;;;;;21.03;13.47;;;;;;;27.28;59.87;101424.19;5089931;28;20178;-60
2021/07/28 06:17:32;;;;;;;22.87;13.73;;;;;;;27.22;58.87;101425.53;5089503;28;20261;-60
2021/07/28 06:19:57;;;;;;;21.67;13.93;;;;;;;27.37;58.99;101434.47;5072134;28;20273;-60
2021/07/28 06:22:24;;;;;;;23.87;14.07;;;;;;;27.30;58.54;101400.88;5090328;28;20191;-61
2021/07/28 06:24:50;;;;;;;18.60;13.63;;;;;;;27.78;57.93;101449.38;5086218;28;20185;-60
2021/07/28 06:27:16;;;;;;;21.90;13.20;;;;;;;27.87;57.78;101449.06;5089026;28;20198;-61
2021/07/28 06:29:41;;;;;;;26.90;13.00;;;;;;;27.60;58.12;101450.06;5089880;28;20175;-60
2021/07/28 06:32:07;;;;;;;18.67;12.60;;;;;;;27.74;57.86;101452.50;5089922;28;20171;-60
2021/07/28 06:34:32;;;;;;;20.13;12.90;;;;;;;27.88;57.73;101451.38;5089579;28;20667;-60
2021/07/28 06:36:58;;;;;;;21.27;13.60;;;;;;;27.30;57.31;101353.28;5088397;28;20179;-60
2021/07/28 06:39:23;;;;;;;22.57;13.37;;;;;;;28.12;57.22;101456.31;5089462;28;20179;-60
2021/07/28 06:41:49;;;;;;;20.13;12.60;;;;;;;28.26;56.89;101453.03;5074647;28;20608;-61
2021/07/28 06:44:14;;;;;;;22.67;13.13;;;;;;;28.33;56.76;101426.78;5109313;28;20159;-60
2021/07/28 06:46:40;;;;;;;19.17;12.30;;;;;;;28.30;55.95;101405.03;5108273;28;20189;-61
2021/07/28 06:49:05;;;;;;;18.48;12.38;;;;;;;28.64;55.15;101451.81;5110583;28;20190;-60
2021/07/28 06:51:31;;;;;;;21.02;12.23;;;;;;;28.79;54.94;101446.44;5109484;28;20245;-61
2021/07/28 06:53:57;;;;;;;20.40;12.68;;;;;;;28.88;54.60;101457.47;5110107;28;20554;-60
2021/07/28 06:56:23;;;;;;;15.52;12.00;;;;;;;29.00;54.13;101452.38;5108218;28;20170;-60
2021/07/28 06:58:48;;;;;;;24.08;12.52;;;;;;;28.46;53.42;101349.91;5109962;28;20174;-61
2021/07/28 07:01:14;;;;;;;21.05;12.45;;;;;;;28.85;53.63;101401.47;5109879;28;20206;-61
2021/07/28 07:03:39;;;;;;;16.80;12.07;;;;;;;28.91;52.80;101387.13;5109960;28;20178;-60
2021/07/28 07:06:06;;;;;;;20.75;12.43;;;;;;;29.46;52.69;101458.41;5107951;28;20185;-60
2021/07/28 07:08:32;;;;;;;21.58;11.90;;;;;;;29.51;52.07;101445.34;5110155;28;20177;-61
2021/07/28 07:10:57;;;;;;;20.55;11.85;;;;;;;29.35;52.26;101447.19;5109285;28;20178;-61
2021/07/28 07:13:23;;;;;;;22.73;12.55;;;;;;;29.11;52.63;101443.66;5110164;28;20173;-60
2021/07/28 07:15:49;;;;;;;22.55;12.80;;;;;;;29.16;51.99;101446.44;5100636;28;20186;-60
2021/07/28 07:18:15;;;;;;;21.15;11.90;;;;;;;28.96;51.91;101424.13;5088931;28;20167;-61
2021/07/28 07:20:40;;;;;;;19.65;12.00;;;;;;;29.25;52.09;101436.69;5089392;28;20254;-60
2021/07/28 07:23:06;;;;;;;20.67;12.90;;;;;;;29.48;51.79;101443.59;5089524;28;20688;-60
2021/07/28 07:25:31;;;;;;;22.13;12.43;;;;;;;29.68;51.58;101443.03;5107541;28;20671;-60
2021/07/28 07:27:57;;;;;;;20.92;12.75;;;;;;;29.82;51.26;101444.56;5091086;28;20182;-61
2021/07/28 07:30:22;;;;;;;22.65;12.43;;;;;;;29.92;50.62;101423.59;5109850;28;20178;-61
2021/07/28 07:35:36;;;;;;;19.35;11.35;;;;;;;30.17;49.97;101429.91;5073340;28;20197;-60
2021/07/28 07:38:02;;;;;;;21.42;11.75;;;;;;;30.12;49.97;101437.28;5070855;28;20597;-61
2021/07/28 07:40:27;;;;;;;24.08;12.73;;;;;;;30.16;49.93;101443.44;5089159;28;20178;-61
2021/07/28 07:42:53;;;;;;;19.75;12.73;;;;;;;30.23;49.74;101464.84;5088547;28;20227;-60
2021/07/28 07:45:18;;;;;;;18.35;12.15;;;;;;;30.30;49.70;101436.38;5080768;28;20687;-61
2021/07/28 07:47:43;;;;;;;18.85;12.38;;;;;;;30.44;48.92;101432.19;5086004;28;20187;-60
2021/07/28 07:50:10;;;;;;;21.15;11.90;;;;;;;30.46;48.44;101431.66;5099588;28;20178;-60
2021/07/28 07:52:36;;;;;;;17.52;11.88;;;;;;;29.95;49.24;101356.75;5108602;28;20175;-60
2021/07/28 07:55:02;;;;;;;21.38;11.82;;;;;;;30.43;49.11;101407.78;5091912;28;20235;-61
2021/07/28 07:57:28;;;;;;;19.83;11.77;;;;;;;29.19;48.50;101185.59;5072227;28;20191;-61
2021/07/28 07:59:53;;;;;;;20.92;11.57;;;;;;;30.98;48.16;101422.97;5092088;28;20686;-60
2021/07/28 08:02:18;;;;;;;20.85;11.48;;;;;;;30.93;48.17;101398.88;5073390;28;20224;-60
2021/07/28 08:04:44;;;;;;;18.13;11.18;;;;;;;31.23;48.35;101421.34;5092696;28;20171;-60
2021/07/28 08:07:09;;;;;;;18.50;11.75;;;;;;;31.42;47.17;101430.50;5089161;28;20175;-60
2021/07/28 08:09:35;;;;;;;20.33;11.93;;;;;;;31.55;46.59;101416.09;5092499;28;20179;-60
2021/07/28 08:12:00;;;;;;;17.42;10.85;;;;;;;31.47;46.65;101421.75;5092204;28;20691;-61
2021/07/28 08:14:25;;;;;;;23.85;11.52;;;;;;;31.32;46.93;101423.72;5091918;28;20175;-60
2021/07/28 08:16:51;;;;;;;18.42;11.68;;;;;;;31.21;47.45;101398.22;5071371;28;20189;-61
2021/07/28 08:19:16;;;;;;;21.95;11.77;;;;;;;31.59;46.80;101408.69;5089166;28;20199;-61
2021/07/28 08:21:42;;;;;;;19.90;11.60;;;;;;;31.88;46.30;101421.00;5092924;28;20202;-60
2021/07/28 08:24:07;;;;;;;19.85;12.05;;;;;;;31.76;44.37;101406.19;5072587;28;20175;-61
2021/07/28 08:26:33;;;;;;;14.57;10.68;;;;;;;31.83;44.57;101414.06;5089199;28;20273;-61
2021/07/28 08:28:58;;;;;;;19.48;12.18;;;;;;;31.88;43.50;101404.53;5084503;28;20672;-61
2021/07/28 08:31:24;;;;;;;22.75;11.98;;;;;;;32.02;42.94;101410.94;5073099;28;20566;-61
2021/07/28 08:33:49;;;;;;;17.60;11.13;;;;;;;32.20;42.64;101409.91;5072096;28;20171;-61
2021/07/28 08:36:15;;;;;;;18.83;10.93;;;;;;;32.10;42.54;101403.16;5071674;28;20199;-61
2021/07/28 08:38:41;;;;;;;14.52;9.90;;;;;;;32.20;42.18;101384.84;5071486;28;20179;-61
2021/07/28 08:41:06;;;;;;;18.08;10.85;;;;;;;32.44;42.97;101412.34;5072324;28;20171;-61
2021/07/28 08:43:36;;;;;;;15.75;10.50;;;;;;;32.48;42.91;101404.91;5071943;28;20231;-62
2021/07/28 08:46:04;;;;;;;17.50;11.52;;;;;;;32.66;43.32;101405.94;5084414;28;20189;-61
2021/07/28 08:48:30;;;;;;;21.92;11.98;;;;;;;32.64;42.35;101403.66;5092491;28;20711;-61
2021/07/28 08:50:58;;;;;;;20.60;11.05;;;;;;;32.82;42.81;101407.56;5092048;28;20171;-61
2021/07/28 08:53:24;;;;;;;17.40;11.30;;;;;;;32.68;42.60;101345.88;5092641;28;20206;-61
2021/07/28 08:55:53;;;;;;;24.30;11.60;;;;;;;32.59;42.93;101327.09;5091618;28;20179;-61
2021/07/28 08:58:22;;;;;;;17.10;11.35;;;;;;;33.15;41.69;101400.72;5092609;28;20566;-61
2021/07/28 09:00:48;;;;;;;18.77;11.93;;;;;;;32.56;41.88;101322.50;5086402;28;20618;-61
2021/07/28 09:03:14;;;;;;;21.88;11.55;;;;;;;33.02;42.35;101400.91;5088834;28;20584;-61
2021/07/28 09:05:48;;;;;;;20.30;11.43;;;;;;;33.07;41.72;101369.13;5081749;28;20195;-61
2021/07/28 09:08:27;;;;;;;20.27;11.55;;;;;;;33.40;41.72;101393.91;5089834;28;20178;-61
2021/07/28 09:10:54;;;;;;;19.98;11.82;;;;;;;33.58;41.63;101394.88;5095111;28;20572;-61
2021/07/28 09:13:40;;;;;;;19.30;10.98;;;;;;;33.79;41.33;101395.44;5094640;28;20183;-62
2021/07/28 09:16:07;;;;;;;20.85;11.38;;;;;;;33.92;41.96;101393.13;5072936;28;20193;-61
2021/07/28 09:18:57;;;;;;;20.77;11.15;;;;;;;34.11;41.03;101378.31;5090872;28;20189;-61
2021/07/28 09:21:31;;;;;;;24.33;11.10;;;;;;;33.98;40.42;101384.31;5091321;28;20192;-61
2021/07/28 09:24:11;;;;;;;19.10;10.80;;;;;;;34.14;40.55;101383.66;5088002;28;20548;-61
2021/07/28 09:26:46;;;;;;;18.92;10.43;;;;;;;34.31;39.82;101380.97;5091730;28;20189;-61
2021/07/28 09:29:24;;;;;;;18.27;10.68;;;;;;;34.44;39.40;101377.84;5092603;28;20198;-61
2021/07/28 09:32:06;;;;;;;19.90;10.98;;;;;;;34.53;39.07;101374.34;5110142;28;20177;-61
2021/07/28 09:34:32;;;;;;;21.40;10.38;;;;;;;34.36;38.73;101359.09;5092067;28;20202;-61
2021/07/28 09:37:04;;;;;;;23.10;10.55;;;;;;;34.35;39.62;101360.44;5104280;28;20182;-61
2021/07/28 09:39:36;;;;;;;18.70;10.52;;;;;;;34.35;39.62;101360.44;5091648;28;20175;-61
2021/07/28 09:42:13;;;;;;;19.00;10.05;;;;;;;34.55;39.48;101354.38;5096032;28;20595;-61
2021/07/28 09:44:44;;;;;;;19.10;10.05;;;;;;;34.63;39.71;101355.13;5108566;28;20191;-63
2021/07/28 09:47:37;;;;;;;15.70;10.30;;;;;;;34.85;39.01;101345.59;5090680;28;20652;-63
2021/07/28 09:50:02;;;;;;;18.33;10.00;;;;;;;35.13;37.86;101342.34;5073116;28;20171;-62
2021/07/28 09:52:33;;;;;;;20.98;10.43;;;;;;;35.29;37.73;101340.13;5091213;28;20171;-61
2021/07/28 09:55:19;;;;;;;18.70;10.65;;;;;;;35.46;36.89;101343.03;5110881;28;20425;-62
2021/07/28 09:57:44;;;;;;;14.23;9.70;;;;;;;35.68;37.74;101354.34;5103270;28;20183;-62
2021/07/28 10:00:10;;;;;;;25.20;10.75;;;;;;;35.51;37.33;101337.03;5111698;28;20181;-62
2021/07/28 10:02:37;;;;;;;15.77;9.80;;;;;;;35.57;37.04;101336.81;5092559;28;20229;-62
2021/07/28 10:05:03;;;;;;;19.38;10.18;;;;;;;35.62;38.60;101330.78;5090589;28;20175;-62
2021/07/28 10:07:30;;;;;;;19.48;10.70;;;;;;;34.83;37.51;101194.91;5089813;28;20179;-62
2021/07/28 10:09:56;;;;;;;19.17;10.15;;;;;;;35.62;37.82;101332.91;5091226;28;20566;-62
2021/07/28 10:12:23;;;;;;;17.85;9.93;;;;;;;35.71;37.21;101330.13;5090897;28;20175;-62
2021/07/28 10:14:49;;;;;;;18.55;10.30;;;;;;;35.91;37.06;101325.28;5110094;28;20753;-62
2021/07/28 10:17:14;;;;;;;17.35;9.95;;;;;;;36.07;36.70;101318.00;5102762;28;20185;-62
2021/07/28 10:19:40;;;;;;;19.27;9.82;;;;;;;35.73;36.04;101228.63;5090383;28;20166;-61
2021/07/28 10:22:07;;;;;;;17.70;10.07;;;;;;;36.52;36.43;101314.53;5104042;28;20248;-62
2021/07/28 10:24:33;;;;;;;20.40;9.35;;;;;;;36.53;36.81;101308.19;5098783;28;20193;-62
2021/07/28 10:27:01;;;;;;;18.15;10.13;;;;;;;36.45;36.30;101295.22;5109828;28;20178;-62
2021/07/28 10:29:27;;;;;;;20.92;10.13;;;;;;;36.07;36.49;101252.41;5102797;28;20211;-62
2021/07/28 10:31:54;;;;;;;20.90;9.70;;;;;;;36.39;35.63;101294.72;5090227;28;20199;-62
2021/07/28 10:34:30;;;;;;;21.55;9.85;;;;;;;36.47;35.32;101286.72;5105352;28;20182;-62
2021/07/28 10:37:07;;;;;;;21.88;9.75;;;;;;;36.68;35.59;101287.78;5109364;28;20184;-62
2021/07/28 10:39:36;;;;;;;17.50;9.55;;;;;;;36.73;35.59;101283.06;5110549;28;20185;-61
2021/07/28 10:42:05;;;;;;;18.77;9.77;;;;;;;36.77;35.96;101255.28;5091758;28;20301;-63
2021/07/28 10:44:51;;;;;;;19.02;9.25;;;;;;;36.76;34.97;101227.75;5109921;28;20155;-62
2021/07/28 10:47:16;;;;;;;19.00;8.80;;;;;;;37.26;35.19;101277.97;5070756;28;20187;-62
2021/07/28 10:49:47;;;;;;;15.90;8.85;;;;;;;37.42;34.93;101272.69;5099005;28;20687;-62
2021/07/28 10:52:39;;;;;;;15.75;8.10;;;;;;;37.57;32.36;101269.53;5110322;28;20194;-62
2021/07/28 10:55:05;;;;;;;16.33;8.43;;;;;;;37.61;33.17;101270.59;5110001;28;20170;-62
2021/07/28 10:57:38;;;;;;;11.95;7.38;;;;;;;37.70;32.65;101260.41;5108526;28;20632;-62
2021/07/28 11:00:06;;;;;;;15.32;8.80;;;;;;;37.93;32.84;101258.56;5110032;28;20560;-63
2021/07/28 11:02:59;;;;;;;15.52;7.88;;;;;;;38.08;32.83;101263.31;5101629;28;20200;-63
2021/07/28 11:05:30;;;;;;;20.48;8.60;;;;;;;37.88;31.79;101187.31;5107995;28;20664;-62
2021/07/28 11:08:07;;;;;;;16.05;8.05;;;;;;;38.32;32.17;101259.28;5109871;28;20171;-62
2021/07/28 11:10:49;;;;;;;21.83;8.98;;;;;;;38.31;32.36;101255.66;5109256;28;20260;-61
2021/07/28 11:13:17;;;;;;;16.40;8.27;;;;;;;38.28;31.41;101230.06;5109993;28;20186;-62
2021/07/28 11:16:00;;;;;;;17.63;8.02;;;;;;;37.95;31.50;101168.25;5109593;28;20178;-62
2021/07/28 11:18:36;;;;;;;18.50;8.13;;;;;;;38.67;31.78;101249.63;5102405;28;20185;-62
2021/07/28 11:21:17;;;;;;;19.88;8.20;;;;;;;38.70;31.12;101242.59;5091019;28;20579;-62